Terminal Aerodrome Forecast
Issued by NWS

Home | Current Version | Previous Version | Text Only | Print | Product List | Glossary Off
Versions: 1 2 3 4 5 6 7 8 9 10 11 12 13 14 15 16 17 18 19 20 21 22

580
FTUS43 KTOP 251543 AAA
TAFMHK
TAF AMD
KMHK 251543Z 2516/2612 01009KT 5SM -RA BKN008 OVC015
     FM252000 01008KT 5SM -RA OVC015
     FM252300 31003KT P6SM SCT030 BKN050=

USA.gov is the U.S. government's official web portal to all federal, state and local government web resources and services.